createdAt,value
2023-01-31T02:03:13.438Z,100.00
2023-01-31T02:05:50.702Z,100.00
2023-01-31T02:08:20.352Z,100.00
2023-01-31T02:10:59.304Z,100.00
2023-01-31T02:13:27.641Z,100.00
2023-01-31T02:15:55.655Z,100.00
2023-01-31T02:18:24.556Z,100.00
2023-01-31T02:21:17.797Z,100.00
2023-01-31T02:24:07.527Z,100.00
2023-01-31T02:27:08.953Z,100.00
2023-01-31T02:29:52.805Z,100.00
2023-01-31T02:32:49.105Z,100.00
2023-01-31T02:35:29.785Z,100.00
2023-01-31T02:38:14.921Z,100.00
2023-01-31T02:41:06.223Z,100.00
2023-01-31T02:44:05.897Z,100.00
2023-01-31T02:47:09.657Z,100.00
2023-01-31T02:49:47.079Z,100.00
2023-01-31T02:52:25.385Z,100.00
2023-01-31T02:55:23.651Z,100.00
2023-01-31T02:57:52.340Z,100.00
2023-01-31T03:00:20.738Z,100.00
2023-01-31T03:02:49.258Z,100.00
2023-01-31T03:05:18.655Z,100.00
2023-01-31T03:07:54.451Z,100.00
2023-01-31T03:10:35.095Z,100.00
2023-01-31T03:13:15.396Z,100.00
2023-01-31T03:16:14.667Z,100.00
2023-01-31T03:19:13.712Z,100.00
2023-01-31T03:22:01.846Z,100.00
2023-01-31T03:24:30.462Z,99.78
2023-01-31T03:26:59.449Z,100.00
2023-01-31T03:29:28.420Z,100.00
2023-01-31T03:32:00.609Z,95.76
2023-01-31T03:34:29.339Z,88.64
2023-01-31T03:37:03.167Z,88.39
2023-01-31T03:40:07.443Z,88.89
2023-01-31T03:42:47.276Z,88.86
2023-01-31T03:45:23.697Z,90.15
2023-01-31T03:47:55.715Z,89.03
2023-01-31T03:50:29.691Z,87.59
2023-01-31T03:53:15.019Z,87.58
2023-01-31T03:55:45.320Z,88.03
2023-01-31T03:58:14.276Z,86.62
2023-01-31T04:00:42.676Z,86.39
2023-01-31T04:03:20.457Z,86.60
2023-01-31T04:05:49.227Z,86.50
2023-01-31T04:08:18.035Z,86.56
2023-01-31T04:10:50.151Z,85.95
2023-01-31T04:13:18.170Z,85.22
2023-01-31T04:15:46.166Z,86.51
2023-01-31T04:18:14.234Z,86.64
2023-01-31T04:20:42.786Z,86.02
2023-01-31T04:23:12.808Z,86.23
2023-01-31T04:25:44.049Z,86.62
2023-01-31T04:28:12.291Z,86.73
2023-01-31T04:30:40.181Z,86.65
2023-01-31T04:33:08.399Z,87.57
2023-01-31T04:35:39.508Z,86.94
2023-01-31T04:38:07.511Z,86.23
2023-01-31T04:40:37.662Z,85.95
2023-01-31T04:43:06.028Z,85.68
2023-01-31T04:45:34.466Z,85.04
2023-01-31T04:48:04.698Z,85.14
2023-01-31T04:50:33.888Z,84.65
2023-01-31T04:53:01.925Z,84.77
2023-01-31T04:55:30.328Z,83.64
2023-01-31T04:57:58.573Z,83.23
2023-01-31T05:00:26.736Z,82.95
2023-01-31T05:02:55.090Z,81.00
2023-01-31T05:05:23.006Z,81.63
2023-01-31T05:07:51.326Z,82.28
2023-01-31T05:10:19.480Z,83.32
2023-01-31T05:12:47.415Z,84.02
2023-01-31T05:15:15.907Z,84.24
2023-01-31T05:17:43.871Z,83.24
2023-01-31T05:20:12.497Z,83.13
2023-01-31T05:22:41.374Z,82.80
2023-01-31T05:25:09.867Z,82.80
2023-01-31T05:27:38.755Z,83.24
2023-01-31T05:30:07.778Z,83.08
2023-01-31T05:32:37.127Z,83.49
2023-01-31T05:35:06.129Z,83.04
2023-01-31T05:37:34.323Z,82.83
2023-01-31T05:40:02.514Z,82.63
2023-01-31T05:42:31.215Z,81.25
2023-01-31T05:45:01.485Z,80.01
2023-01-31T05:47:29.764Z,74.24
2023-01-31T05:49:57.907Z,67.35
2023-01-31T05:52:26.256Z,67.19
2023-01-31T05:54:54.132Z,66.74
2023-01-31T05:57:24.842Z,67.25
2023-01-31T05:59:52.857Z,67.38
2023-01-31T06:02:20.901Z,66.79
2023-01-31T06:04:49.544Z,66.30
2023-01-31T06:07:20.516Z,66.65
2023-01-31T06:09:48.545Z,68.84
2023-01-31T06:12:16.434Z,69.25
2023-01-31T06:14:46.268Z,69.04
2023-01-31T06:17:14.951Z,68.44
2023-01-31T06:19:43.166Z,68.50
2023-01-31T06:22:11.329Z,67.80
2023-01-31T06:24:39.247Z,67.45
2023-01-31T06:27:07.147Z,68.06
2023-01-31T06:29:36.298Z,67.30
2023-01-31T06:32:04.767Z,66.95
2023-01-31T06:34:33.049Z,66.78
2023-01-31T06:37:00.939Z,67.20
2023-01-31T06:39:29.279Z,67.81
2023-01-31T06:41:57.670Z,67.49
2023-01-31T06:44:26.679Z,66.70
2023-01-31T06:46:56.016Z,67.61
2023-01-31T06:49:24.192Z,67.45
2023-01-31T06:51:53.125Z,67.22
2023-01-31T06:54:21.151Z,67.54
2023-01-31T06:56:49.033Z,68.89
2023-01-31T06:59:17.367Z,67.32
2023-01-31T07:01:45.278Z,67.48
2023-01-31T07:04:13.512Z,68.01
2023-01-31T07:06:41.502Z,67.02
2023-01-31T07:09:11.146Z,66.74
2023-01-31T07:11:42.894Z,65.74
2023-01-31T07:14:15.025Z,65.95
2023-01-31T07:16:42.955Z,65.80
2023-01-31T07:19:10.799Z,66.58
2023-01-31T07:21:38.804Z,66.32
2023-01-31T07:24:07.577Z,65.73
2023-01-31T07:26:38.827Z,65.77
2023-01-31T07:29:06.995Z,65.83
2023-01-31T07:31:34.949Z,66.11
2023-01-31T07:34:02.912Z,66.08
2023-01-31T07:36:32.258Z,67.39
2023-01-31T07:39:01.920Z,66.83
2023-01-31T07:41:31.090Z,65.78
2023-01-31T07:43:59.559Z,65.48
2023-01-31T07:46:27.673Z,66.04
2023-01-31T07:48:55.831Z,65.71
2023-01-31T07:51:24.234Z,64.80
2023-01-31T07:53:52.327Z,64.73
2023-01-31T07:56:21.524Z,64.61
2023-01-31T07:58:50.148Z,63.88
2023-01-31T08:01:38.629Z,63.66
2023-01-31T08:04:20.129Z,63.11
2023-01-31T08:06:50.701Z,62.75
2023-01-31T08:09:18.710Z,62.61
2023-01-31T11:51:39.892Z,100.00
2023-01-31T11:54:13.284Z,100.00
2023-01-31T11:56:40.209Z,100.00
2023-01-31T11:59:10.413Z,99.10
2023-01-31T12:01:51.040Z,97.98
2023-01-31T12:04:24.886Z,96.65
2023-01-31T12:06:57.174Z,94.84
2023-01-31T12:09:25.601Z,93.93
2023-01-31T12:11:57.009Z,81.74
2023-01-31T12:14:24.572Z,80.26
2023-01-31T12:16:55.270Z,79.74
2023-01-31T12:20:07.198Z,78.55
2023-01-31T12:22:51.655Z,77.96
2023-01-31T12:25:43.054Z,78.07
2023-01-31T12:28:42.253Z,77.30
2023-01-31T12:31:27.401Z,77.37
2023-01-31T12:34:04.156Z,78.13
2023-01-31T12:36:49.777Z,77.80
2023-01-31T12:40:09.071Z,77.06
2023-01-31T12:42:54.092Z,76.54
2023-01-31T12:45:47.235Z,76.18
2023-01-31T12:48:36.319Z,76.71
2023-01-31T12:51:43.079Z,76.61
2023-01-31T12:54:33.976Z,76.02
2023-01-31T12:57:06.714Z,76.43
2023-01-31T12:59:37.338Z,76.12
2023-01-31T13:02:51.589Z,74.84
2023-01-31T13:05:47.320Z,74.25
2023-01-31T13:08:21.404Z,74.51
2023-01-31T13:11:00.907Z,74.40
2023-01-31T13:13:35.657Z,74.55
2023-01-31T13:16:25.318Z,74.76
2023-01-31T13:18:53.903Z,74.15
2023-01-31T13:21:23.109Z,74.19
2023-01-31T13:23:53.819Z,74.05
2023-01-31T13:26:22.661Z,74.11
2023-01-31T13:29:23.763Z,74.03
2023-01-31T13:31:53.849Z,73.41
2023-01-31T13:34:31.063Z,72.81
2023-01-31T13:37:00.781Z,72.91
2023-01-31T13:39:35.350Z,72.58
2023-01-31T13:42:01.890Z,73.16
2023-01-31T13:44:28.617Z,73.57
2023-01-31T13:46:57.688Z,73.81
2023-01-31T13:49:28.783Z,73.62
2023-01-31T13:51:56.623Z,73.59
2023-01-31T13:54:33.530Z,72.99
2023-01-31T13:57:00.140Z,73.72
2023-01-31T13:59:28.283Z,72.65
2023-01-31T14:02:01.916Z,72.58
2023-01-31T14:04:34.365Z,72.20
2023-01-31T14:07:05.422Z,72.10
2023-01-31T14:09:55.582Z,71.87
2023-01-31T14:12:22.535Z,71.42
2023-01-31T14:14:50.723Z,71.01
2023-01-31T14:17:20.595Z,70.34
2023-01-31T14:19:47.158Z,70.53
2023-01-31T14:22:27.456Z,70.52
2023-01-31T14:24:56.128Z,70.93
2023-01-31T14:27:37.310Z,70.75
2023-01-31T14:30:06.718Z,71.02
2023-01-31T14:33:05.823Z,71.48
2023-01-31T14:36:07.393Z,70.89
2023-01-31T14:38:44.209Z,70.17
2023-01-31T14:41:40.060Z,70.45
2023-01-31T14:44:13.036Z,70.60
2023-01-31T14:47:06.575Z,70.38
2023-01-31T14:49:53.064Z,70.13
2023-01-31T14:52:23.623Z,69.96
2023-01-31T14:55:26.566Z,69.64
2023-01-31T14:57:57.691Z,68.73
2023-01-31T15:00:32.191Z,70.09
2023-01-31T15:03:12.506Z,69.55
2023-01-31T15:05:41.598Z,69.21
2023-01-31T15:08:08.280Z,69.11
2023-01-31T15:10:57.445Z,69.29
2023-01-31T15:13:39.199Z,69.75
2023-01-31T15:16:33.401Z,70.38
2023-01-31T15:19:16.830Z,69.57
2023-01-31T15:21:47.985Z,68.82
2023-01-31T15:24:19.832Z,69.25
2023-01-31T15:26:47.650Z,69.51
2023-01-31T15:29:43.824Z,69.57
2023-01-31T15:32:21.967Z,69.91
2023-01-31T15:35:01.291Z,70.11
2023-01-31T15:37:32.410Z,70.39
2023-01-31T15:40:02.605Z,70.03
2023-01-31T15:42:31.469Z,69.87
2023-01-31T15:45:16.597Z,69.61
2023-01-31T15:47:43.458Z,70.06
2023-01-31T15:50:17.904Z,70.35
2023-01-31T19:44:46.583Z,100.00
2023-01-31T19:47:14.793Z,100.00
2023-01-31T19:49:43.685Z,100.00
2023-01-31T19:52:11.852Z,100.00
2023-01-31T19:54:41.672Z,100.00
2023-01-31T19:57:10.802Z,100.00
2023-01-31T19:59:38.965Z,100.00
2023-01-31T20:02:07.271Z,100.00
2023-01-31T20:04:35.293Z,100.00
2023-01-31T20:07:04.160Z,100.00
2023-01-31T20:09:33.965Z,100.00
2023-01-31T20:12:02.021Z,100.00
2023-01-31T20:14:30.452Z,100.00
2023-01-31T20:16:58.891Z,100.00
2023-01-31T20:19:26.951Z,100.00
2023-01-31T20:21:55.453Z,100.00
2023-01-31T20:24:23.608Z,100.00
2023-01-31T20:26:51.772Z,100.00
2023-01-31T20:29:19.730Z,100.00
2023-01-31T20:31:48.784Z,100.00
2023-01-31T20:34:16.803Z,100.00
2023-01-31T20:36:44.907Z,100.00
2023-01-31T20:39:13.205Z,100.00
2023-01-31T20:41:41.384Z,100.00
2023-01-31T20:44:09.318Z,100.00
2023-01-31T20:46:37.964Z,100.00
2023-01-31T20:49:06.116Z,100.00
2023-01-31T20:51:34.587Z,100.00
2023-01-31T20:54:03.854Z,100.00
2023-01-31T20:56:32.382Z,100.00
2023-01-31T20:59:04.713Z,100.00
2023-01-31T21:01:33.259Z,100.00
2023-01-31T21:04:01.165Z,100.00
2023-01-31T21:06:29.757Z,100.00
2023-01-31T21:08:57.739Z,100.00
2023-01-31T21:11:25.811Z,100.00
2023-01-31T21:13:53.775Z,100.00
2023-01-31T21:16:22.211Z,100.00
2023-01-31T21:18:50.211Z,100.00
2023-01-31T21:21:25.523Z,100.00
2023-01-31T21:23:55.003Z,100.00
2023-01-31T21:26:24.960Z,100.00
2023-01-31T21:28:54.609Z,100.00
2023-01-31T21:31:22.858Z,100.00
2023-01-31T21:33:51.382Z,100.00
2023-01-31T21:36:21.545Z,100.00
2023-01-31T21:38:49.630Z,100.00
2023-01-31T21:41:36.885Z,100.00
2023-01-31T21:44:04.977Z,100.00
2023-01-31T21:46:33.176Z,100.00
2023-01-31T21:49:01.790Z,100.00
2023-01-31T23:51:04.657Z,100.00
2023-01-31T23:53:39.981Z,100.00
2023-01-31T23:56:24.761Z,100.00
2023-01-31T23:59:09.976Z,100.00
